This is the latest recevied weather packets stored in our database for station/object KQ4KX. If no packets are shown the sender has not sent any weather packets the latest 1 day(s).
| Time | Temp. | Humidity | Pressure | Rain* | Wind** | Luminosity | Snow |
|---|---|---|---|---|---|---|---|
| 1778032834 | 23.33° C | 73% | 1016.3 hPa | 0 mm | - | - | - |
| 1778032174 | 23.89° C | 74% | 1016.1 hPa | 0 mm | - | - | - |
| 1778031873 | 23.89° C | 74% | 1016 hPa | 0 mm | - | - | - |
| 1778030914 | 23.89° C | 72% | 1015.8 hPa | 0 mm | - | - | - |
| 1778030253 | 24.44° C | 72% | 1015.7 hPa | 0 mm | - | - | - |
| 1778029953 | 24.44° C | 71% | 1015.6 hPa | 0 mm | - | - | - |
| 1778028093 | 25° C | 70% | 1015.1 hPa | 0 mm | - | - | - |
| 1778027493 | 25° C | 70% | 1015.1 hPa | 0 mm | - | - | - |
| 1778026863 | 25° C | 69% | 1014.9 hPa | 0 mm | - | - | - |
| 1778026564 | 25.56° C | 69% | 1014.9 hPa | 0 mm | - | - | - |
| 1778025933 | 25.56° C | 66% | 1014.9 hPa | 0 mm | - | - | - |
| 1778024404 | 26.67° C | 67% | 1014.5 hPa | 0 mm | - | - | - |
| 1778018193 | 28.89° C | 58% | 1014.5 hPa | 0 mm | - | - | - |
| 1778015313 | 30° C | 54% | 1014.3 hPa | 0 mm | - | - | - |
| 1778014713 | 30.56° C | 52% | 1014.4 hPa | 0 mm | - | - | - |
| 1778013154 | 31.11° C | 52% | 1014.4 hPa | 0 mm | - | - | - |
| 1778011233 | 30.56° C | 51% | 1014.7 hPa | 0 mm | - | - | - |
| 1778008713 | 31.11° C | 52% | 1015.1 hPa | 0 mm | - | - | - |
| 1778007453 | 31.11° C | 53% | 1015.3 hPa | 0 mm | - | - | - |
| 1778006823 | 31.11° C | 53% | 1015.4 hPa | 0 mm | - | - | - |
| 1778004333 | 31.11° C | 53% | 1016 hPa | 0 mm | - | - | - |
| 1778000853 | 30.56° C | 54% | 1016.5 hPa | 0 mm | - | - | - |
| 1778000223 | 30° C | 56% | 1016.5 hPa | 0 mm | - | - | - |
| 1777996473 | 28.89° C | 57% | 1016.7 hPa | 0 mm | - | - | - |
* Rain latest hour (hover to see other rain measurements)
** Current wind speed in m/s (hover to see current wind gust speed)